sensor_id;sensor_type;location;lat;lon;timestamp;pressure;altitude;pressure_sealevel;temperature;humidity
22283;BME280;11310;51.528;21.204;2022-11-20T00:01:38;99922.28;;;-6.89;100.00
22283;BME280;11310;51.528;21.204;2022-11-20T00:04:10;99920.59;;;-6.89;100.00
22283;BME280;11310;51.528;21.204;2022-11-20T00:06:38;99921.38;;;-6.93;100.00
22283;BME280;11310;51.528;21.204;2022-11-20T00:09:09;99917.03;;;-6.97;100.00
22283;BME280;11310;51.528;21.204;2022-11-20T00:11:39;99917.81;;;-7.01;100.00
22283;BME280;11310;51.528;21.204;2022-11-20T00:14:09;99912.66;;;-7.02;100.00
22283;BME280;11310;51.528;21.204;2022-11-20T00:16:40;99923.72;;;-7.02;100.00
22283;BME280;11310;51.528;21.204;2022-11-20T00:19:09;99908.44;;;-7.02;100.00
22283;BME280;11310;51.528;21.204;2022-11-20T00:21:38;99910.06;;;-7.04;100.00
22283;BME280;11310;51.528;21.204;2022-11-20T00:24:11;99908.38;;;-7.05;100.00
22283;BME280;11310;51.528;21.204;2022-11-20T00:26:40;99908.31;;;-7.06;100.00
22283;BME280;11310;51.528;21.204;2022-11-20T00:29:09;99915.19;;;-7.04;100.00
22283;BME280;11310;51.528;21.204;2022-11-20T00:31:40;99910.94;;;-7.03;100.00
22283;BME280;11310;51.528;21.204;2022-11-20T00:34:09;99916.09;;;-7.02;100.00
22283;BME280;11310;51.528;21.204;2022-11-20T00:36:38;99905.88;;;-7.02;100.00
22283;BME280;11310;51.528;21.204;2022-11-20T00:39:07;99898.16;;;-7.05;100.00
22283;BME280;11310;51.528;21.204;2022-11-20T00:41:35;99907.66;;;-6.98;100.00
22283;BME280;11310;51.528;21.204;2022-11-20T00:44:05;99909.44;;;-6.94;100.00
22283;BME280;11310;51.528;21.204;2022-11-20T00:46:33;99901.88;;;-6.91;100.00
22283;BME280;11310;51.528;21.204;2022-11-20T00:49:03;99905.25;;;-6.92;100.00
22283;BME280;11310;51.528;21.204;2022-11-20T00:51:32;99902.69;;;-6.92;100.00
22283;BME280;11310;51.528;21.204;2022-11-20T00:54:01;99901.81;;;-6.92;100.00
22283;BME280;11310;51.528;21.204;2022-11-20T00:56:30;99902.66;;;-6.93;100.00
22283;BME280;11310;51.528;21.204;2022-11-20T00:58:59;99899.28;;;-6.92;100.00
22283;BME280;11310;51.528;21.204;2022-11-20T01:01:28;99897.53;;;-6.95;100.00
22283;BME280;11310;51.528;21.204;2022-11-20T01:03:59;99899.22;;;-6.95;100.00
22283;BME280;11310;51.528;21.204;2022-11-20T01:06:32;99905.94;;;-6.99;100.00
22283;BME280;11310;51.528;21.204;2022-11-20T01:09:05;99902.50;;;-7.01;100.00
22283;BME280;11310;51.528;21.204;2022-11-20T01:11:36;99892.31;;;-7.01;100.00
22283;BME280;11310;51.528;21.204;2022-11-20T01:14:07;99900.00;;;-6.98;100.00
22283;BME280;11310;51.528;21.204;2022-11-20T01:16:38;99900.06;;;-6.95;100.00
22283;BME280;11310;51.528;21.204;2022-11-20T01:19:10;99900.91;;;-6.96;100.00
22283;BME280;11310;51.528;21.204;2022-11-20T01:21:47;99899.22;;;-6.95;100.00
22283;BME280;11310;51.528;21.204;2022-11-20T01:24:18;99889.09;;;-6.92;100.00
22283;BME280;11310;51.528;21.204;2022-11-20T01:26:49;99897.50;;;-6.96;100.00
22283;BME280;11310;51.528;21.204;2022-11-20T01:29:21;99894.91;;;-6.98;100.00
22283;BME280;11310;51.528;21.204;2022-11-20T01:31:51;99886.31;;;-7.03;100.00
22283;BME280;11310;51.528;21.204;2022-11-20T01:34:21;99887.06;;;-7.07;100.00
22283;BME280;11310;51.528;21.204;2022-11-20T01:36:52;99885.31;;;-7.11;100.00
22283;BME280;11310;51.528;21.204;2022-11-20T01:39:22;99889.41;;;-7.16;100.00
22283;BME280;11310;51.528;21.204;2022-11-20T01:41:55;99884.28;;;-7.19;100.00
22283;BME280;11310;51.528;21.204;2022-11-20T01:44:53;99882.59;;;-7.17;100.00
22283;BME280;11310;51.528;21.204;2022-11-20T01:47:27;99879.22;;;-7.16;100.00
22283;BME280;11310;51.528;21.204;2022-11-20T01:50:04;99875.09;;;-7.12;100.00
22283;BME280;11310;51.528;21.204;2022-11-20T01:52:39;99867.38;;;-7.15;100.00
22283;BME280;11310;51.528;21.204;2022-11-20T01:55:10;99858.00;;;-7.16;100.00
22283;BME280;11310;51.528;21.204;2022-11-20T01:58:05;99866.44;;;-7.19;100.00
22283;BME280;11310;51.528;21.204;2022-11-20T02:00:51;99859.66;;;-7.18;100.00
22283;BME280;11310;51.528;21.204;2022-11-20T02:03:20;99853.66;;;-7.20;100.00
22283;BME280;11310;51.528;21.204;2022-11-20T02:05:51;99857.84;;;-7.24;100.00
22283;BME280;11310;51.528;21.204;2022-11-20T02:08:24;99849.22;;;-7.30;100.00
22283;BME280;11310;51.528;21.204;2022-11-20T02:10:52;99853.38;;;-7.34;100.00
22283;BME280;11310;51.528;21.204;2022-11-20T02:13:21;99852.44;;;-7.37;100.00
22283;BME280;11310;51.528;21.204;2022-11-20T02:16:10;99848.97;;;-7.41;100.00
22283;BME280;11310;51.528;21.204;2022-11-20T02:18:40;99859.16;;;-7.41;100.00
22283;BME280;11310;51.528;21.204;2022-11-20T02:21:17;99851.47;;;-7.42;100.00
22283;BME280;11310;51.528;21.204;2022-11-20T02:24:10;99862.50;;;-7.43;100.00
22283;BME280;11310;51.528;21.204;2022-11-20T02:26:47;99861.66;;;-7.42;100.00
22283;BME280;11310;51.528;21.204;2022-11-20T02:29:21;99861.78;;;-7.38;100.00
22283;BME280;11310;51.528;21.204;2022-11-20T02:31:54;99862.66;;;-7.36;100.00
22283;BME280;11310;51.528;21.204;2022-11-20T02:34:23;99860.19;;;-7.33;100.00
22283;BME280;11310;51.528;21.204;2022-11-20T02:36:52;99855.94;;;-7.34;100.00
22283;BME280;11310;51.528;21.204;2022-11-20T02:39:24;99863.59;;;-7.34;100.00
22283;BME280;11310;51.528;21.204;2022-11-20T02:41:54;99862.63;;;-7.37;100.00
22283;BME280;11310;51.528;21.204;2022-11-20T02:44:23;99871.97;;;-7.38;100.00
22283;BME280;11310;51.528;21.204;2022-11-20T02:46:52;99863.50;;;-7.37;100.00
22283;BME280;11310;51.528;21.204;2022-11-20T02:49:21;99870.38;;;-7.33;100.00
22283;BME280;11310;51.528;21.204;2022-11-20T02:51:50;99873.03;;;-7.28;100.00
22283;BME280;11310;51.528;21.204;2022-11-20T02:54:18;99870.59;;;-7.24;100.00
22283;BME280;11310;51.528;21.204;2022-11-20T02:56:48;99867.13;;;-7.26;100.00
22283;BME280;11310;51.528;21.204;2022-11-20T02:59:16;99864.53;;;-7.29;100.00
22283;BME280;11310;51.528;21.204;2022-11-20T03:01:45;99862.00;;;-7.29;100.00
22283;BME280;11310;51.528;21.204;2022-11-20T03:04:14;99860.25;;;-7.31;100.00
22283;BME280;11310;51.528;21.204;2022-11-20T03:06:43;99866.94;;;-7.35;100.00
22283;BME280;11310;51.528;21.204;2022-11-20T03:09:12;99867.69;;;-7.39;100.00
22283;BME280;11310;51.528;21.204;2022-11-20T03:11:40;99863.44;;;-7.40;100.00
22283;BME280;11310;51.528;21.204;2022-11-20T03:14:11;99862.50;;;-7.43;100.00
22283;BME280;11310;51.528;21.204;2022-11-20T03:16:40;99857.28;;;-7.48;100.00
22283;BME280;11310;51.528;21.204;2022-11-20T03:19:09;99854.69;;;-7.51;100.00
22283;BME280;11310;51.528;21.204;2022-11-20T03:21:37;99852.94;;;-7.53;100.00
22283;BME280;11310;51.528;21.204;2022-11-20T03:24:07;99853.78;;;-7.53;100.00
22283;BME280;11310;51.528;21.204;2022-11-20T03:26:38;99858.09;;;-7.50;100.00
22283;BME280;11310;51.528;21.204;2022-11-20T03:29:07;99854.75;;;-7.48;100.00
22283;BME280;11310;51.528;21.204;2022-11-20T03:31:39;99865.00;;;-7.45;100.00
22283;BME280;11310;51.528;21.204;2022-11-20T03:34:09;99861.63;;;-7.45;100.00
22283;BME280;11310;51.528;21.204;2022-11-20T03:36:39;99858.19;;;-7.46;100.00
22283;BME280;11310;51.528;21.204;2022-11-20T03:39:09;99853.03;;;-7.49;100.00
22283;BME280;11310;51.528;21.204;2022-11-20T03:41:39;99856.41;;;-7.50;100.00
22283;BME280;11310;51.528;21.204;2022-11-20T03:44:11;99856.34;;;-7.53;100.00
22283;BME280;11310;51.528;21.204;2022-11-20T03:46:41;99854.63;;;-7.54;100.00
22283;BME280;11310;51.528;21.204;2022-11-20T03:49:10;99856.28;;;-7.56;100.00
22283;BME280;11310;51.528;21.204;2022-11-20T03:51:38;99851.13;;;-7.59;100.00
22283;BME280;11310;51.528;21.204;2022-11-20T03:54:08;99845.16;;;-7.59;100.00
22283;BME280;11310;51.528;21.204;2022-11-20T03:56:37;99838.38;;;-7.59;100.00
22283;BME280;11310;51.528;21.204;2022-11-20T03:59:09;99839.28;;;-7.57;100.00
22283;BME280;11310;51.528;21.204;2022-11-20T04:01:38;99839.25;;;-7.58;100.00
22283;BME280;11310;51.528;21.204;2022-11-20T04:04:14;99844.31;;;-7.60;100.00
22283;BME280;11310;51.528;21.204;2022-11-20T04:06:43;99851.91;;;-7.61;100.00
22283;BME280;11310;51.528;21.204;2022-11-20T04:09:11;99847.59;;;-7.64;100.00
22283;BME280;11310;51.528;21.204;2022-11-20T04:11:40;99841.63;;;-7.66;100.00
22283;BME280;11310;51.528;21.204;2022-11-20T04:14:13;99834.84;;;-7.65;100.00
22283;BME280;11310;51.528;21.204;2022-11-20T04:16:42;99834.00;;;-7.64;100.00
22283;BME280;11310;51.528;21.204;2022-11-20T04:19:15;99828.03;;;-7.66;100.00
22283;BME280;11310;51.528;21.204;2022-11-20T04:21:45;99828.06;;;-7.65;100.00
22283;BME280;11310;51.528;21.204;2022-11-20T04:24:14;99825.44;;;-7.68;100.00
22283;BME280;11310;51.528;21.204;2022-11-20T04:26:42;99830.53;;;-7.68;100.00
22283;BME280;11310;51.528;21.204;2022-11-20T04:29:11;99827.16;;;-7.67;100.00
22283;BME280;11310;51.528;21.204;2022-11-20T04:31:41;99821.28;;;-7.66;100.00
22283;BME280;11310;51.528;21.204;2022-11-20T04:34:11;99817.06;;;-7.64;100.00
22283;BME280;11310;51.528;21.204;2022-11-20T04:36:41;99823.03;;;-7.62;100.00
22283;BME280;11310;51.528;21.204;2022-11-20T04:39:13;99817.94;;;-7.62;100.00
22283;BME280;11310;51.528;21.204;2022-11-20T04:41:42;99809.47;;;-7.62;100.00
22283;BME280;11310;51.528;21.204;2022-11-20T04:44:11;99806.88;;;-7.64;100.00
22283;BME280;11310;51.528;21.204;2022-11-20T04:46:41;99805.16;;;-7.65;100.00
22283;BME280;11310;51.528;21.204;2022-11-20T04:49:10;99803.44;;;-7.66;100.00
22283;BME280;11310;51.528;21.204;2022-11-20T04:51:41;99794.91;;;-7.68;100.00
22283;BME280;11310;51.528;21.204;2022-11-20T04:54:11;99795.81;;;-7.66;100.00
22283;BME280;11310;51.528;21.204;2022-11-20T04:56:39;99795.03;;;-7.62;100.00
22283;BME280;11310;51.528;21.204;2022-11-20T04:59:08;99797.66;;;-7.59;100.00
22283;BME280;11310;51.528;21.204;2022-11-20T05:01:36;99791.72;;;-7.58;100.00
22283;BME280;11310;51.528;21.204;2022-11-20T05:04:05;99797.66;;;-7.59;100.00
22283;BME280;11310;51.528;21.204;2022-11-20T05:06:34;99785.72;;;-7.61;100.00
22283;BME280;11310;51.528;21.204;2022-11-20T05:09:04;99793.41;;;-7.60;100.00
22283;BME280;11310;51.528;21.204;2022-11-20T05:11:33;99779.78;;;-7.60;100.00
22283;BME280;11310;51.528;21.204;2022-11-20T05:14:02;99779.81;;;-7.59;100.00
22283;BME280;11310;51.528;21.204;2022-11-20T05:16:30;99774.66;;;-7.62;100.00
22283;BME280;11310;51.528;21.204;2022-11-20T05:18:59;99784.78;;;-7.65;100.00
22283;BME280;11310;51.528;21.204;2022-11-20T05:21:30;99780.47;;;-7.69;100.00
22283;BME280;11310;51.528;21.204;2022-11-20T05:24:00;99782.97;;;-7.70;100.00
22283;BME280;11310;51.528;21.204;2022-11-20T05:26:30;99790.53;;;-7.73;100.00
22283;BME280;11310;51.528;21.204;2022-11-20T05:28:58;99787.97;;;-7.73;100.00
22283;BME280;11310;51.528;21.204;2022-11-20T05:31:27;99786.34;;;-7.71;100.00
22283;BME280;11310;51.528;21.204;2022-11-20T05:33:56;99778.69;;;-7.73;100.00
22283;BME280;11310;51.528;21.204;2022-11-20T05:36:25;99781.19;;;-7.74;100.00
22283;BME280;11310;51.528;21.204;2022-11-20T05:38:53;99779.38;;;-7.78;100.00
22283;BME280;11310;51.528;21.204;2022-11-20T05:41:27;99779.22;;;-7.86;100.00
22283;BME280;11310;51.528;21.204;2022-11-20T05:43:57;99781.53;;;-7.96;100.00
22283;BME280;11310;51.528;21.204;2022-11-20T05:46:28;99778.81;;;-8.04;100.00
22283;BME280;11310;51.528;21.204;2022-11-20T05:48:57;99783.00;;;-8.06;100.00
22283;BME280;11310;51.528;21.204;2022-11-20T05:51:27;99778.69;;;-8.10;100.00
22283;BME280;11310;51.528;21.204;2022-11-20T05:53:56;99781.97;;;-8.14;100.00
22283;BME280;11310;51.528;21.204;2022-11-20T05:56:25;99781.00;;;-8.20;100.00
22283;BME280;11310;51.528;21.204;2022-11-20T05:58:54;99785.06;;;-8.27;100.00
22283;BME280;11310;51.528;21.204;2022-11-20T06:01:25;99790.88;;;-8.32;100.00
22283;BME280;11310;51.528;21.204;2022-11-20T06:03:54;99785.72;;;-8.35;100.00
22283;BME280;11310;51.528;21.204;2022-11-20T06:06:23;99787.34;;;-8.37;100.00
22283;BME280;11310;51.528;21.204;2022-11-20T06:08:53;99792.47;;;-8.36;100.00
22283;BME280;11310;51.528;21.204;2022-11-20T06:11:22;99786.66;;;-8.32;100.00
22283;BME280;11310;51.528;21.204;2022-11-20T06:13:50;99786.72;;;-8.29;100.00
22283;BME280;11310;51.528;21.204;2022-11-20T06:16:19;99786.69;;;-8.30;100.00
22283;BME280;11310;51.528;21.204;2022-11-20T06:18:50;99794.31;;;-8.30;100.00
22283;BME280;11310;51.528;21.204;2022-11-20T06:21:20;99790.16;;;-8.27;100.00
22283;BME280;11310;51.528;21.204;2022-11-20T06:23:49;99778.41;;;-8.22;100.00
22283;BME280;11310;51.528;21.204;2022-11-20T06:26:20;99772.50;;;-8.19;100.00
22283;BME280;11310;51.528;21.204;2022-11-20T06:28:50;99771.78;;;-8.14;100.00
22283;BME280;11310;51.528;21.204;2022-11-20T06:31:21;99770.13;;;-8.12;100.00
22283;BME280;11310;51.528;21.204;2022-11-20T06:33:51;99774.47;;;-8.09;100.00
22283;BME280;11310;51.528;21.204;2022-11-20T06:36:21;99761.75;;;-8.08;100.00
22283;BME280;11310;51.528;21.204;2022-11-20T06:38:50;99772.00;;;-8.05;100.00
22283;BME280;11310;51.528;21.204;2022-11-20T06:41:21;99772.88;;;-8.03;100.00
22283;BME280;11310;51.528;21.204;2022-11-20T06:43:50;99770.38;;;-8.01;100.00
22283;BME280;11310;51.528;21.204;2022-11-20T06:46:19;99772.94;;;-8.01;100.00
22283;BME280;11310;51.528;21.204;2022-11-20T06:48:51;99777.22;;;-7.99;100.00
22283;BME280;11310;51.528;21.204;2022-11-20T06:51:20;99779.84;;;-7.96;100.00
22283;BME280;11310;51.528;21.204;2022-11-20T06:53:48;99770.63;;;-7.91;100.00
22283;BME280;11310;51.528;21.204;2022-11-20T06:56:17;99766.47;;;-7.87;100.00
22283;BME280;11310;51.528;21.204;2022-11-20T06:58:45;99777.63;;;-7.81;100.00
22283;BME280;11310;51.528;21.204;2022-11-20T07:01:15;99774.34;;;-7.77;100.00
22283;BME280;11310;51.528;21.204;2022-11-20T07:03:43;99778.78;;;-7.67;100.00
22283;BME280;11310;51.528;21.204;2022-11-20T07:06:18;99764.63;;;-7.56;100.00
22283;BME280;11310;51.528;21.204;2022-11-20T07:08:47;99764.81;;;-7.47;100.00
22283;BME280;11310;51.528;21.204;2022-11-20T07:11:19;99766.66;;;-7.40;100.00
22283;BME280;11310;51.528;21.204;2022-11-20T07:13:48;99764.19;;;-7.37;100.00
22283;BME280;11310;51.528;21.204;2022-11-20T07:16:16;99760.91;;;-7.31;100.00
22283;BME280;11310;51.528;21.204;2022-11-20T07:18:45;99766.06;;;-7.27;100.00
22283;BME280;11310;51.528;21.204;2022-11-20T07:21:19;99769.56;;;-7.22;100.00
22283;BME280;11310;51.528;21.204;2022-11-20T07:23:48;99767.97;;;-7.17;100.00
22283;BME280;11310;51.528;21.204;2022-11-20T07:26:16;99764.78;;;-7.05;100.00
22283;BME280;11310;51.528;21.204;2022-11-20T07:28:45;99757.28;;;-6.98;100.00
22283;BME280;11310;51.528;21.204;2022-11-20T07:31:14;99757.63;;;-6.81;100.00
22283;BME280;11310;51.528;21.204;2022-11-20T07:33:45;99763.03;;;-6.65;100.00
22283;BME280;11310;51.528;21.204;2022-11-20T07:36:14;99761.53;;;-6.52;100.00
22283;BME280;11310;51.528;21.204;2022-11-20T07:38:44;99764.31;;;-6.39;100.00
22283;BME280;11310;51.528;21.204;2022-11-20T07:41:14;99759.44;;;-6.25;100.00
22283;BME280;11310;51.528;21.204;2022-11-20T07:43:42;99748.56;;;-6.14;100.00
22283;BME280;11310;51.528;21.204;2022-11-20T07:46:11;99742.69;;;-6.10;100.00
22283;BME280;11310;51.528;21.204;2022-11-20T07:48:40;99745.25;;;-6.07;100.00
22283;BME280;11310;51.528;21.204;2022-11-20T07:51:08;99739.34;;;-6.04;100.00
22283;BME280;11310;51.528;21.204;2022-11-20T07:53:37;99747.94;;;-5.98;100.00
22283;BME280;11310;51.528;21.204;2022-11-20T07:56:07;99748.91;;;-5.91;100.00
22283;BME280;11310;51.528;21.204;2022-11-20T07:58:36;99753.28;;;-5.83;100.00
22283;BME280;11310;51.528;21.204;2022-11-20T08:01:06;99750.75;;;-5.78;100.00
22283;BME280;11310;51.528;21.204;2022-11-20T08:03:35;99751.66;;;-5.75;100.00
22283;BME280;11310;51.528;21.204;2022-11-20T08:06:07;99752.56;;;-5.70;100.00
22283;BME280;11310;51.528;21.204;2022-11-20T08:08:36;99751.03;;;-5.59;100.00
22283;BME280;11310;51.528;21.204;2022-11-20T08:11:10;99761.41;;;-5.48;100.00
22283;BME280;11310;51.528;21.204;2022-11-20T08:13:57;99764.06;;;-5.38;100.00
22283;BME280;11310;51.528;21.204;2022-11-20T08:16:42;99755.69;;;-5.28;100.00
22283;BME280;11310;51.528;21.204;2022-11-20T08:19:11;99754.91;;;-5.21;100.00
22283;BME280;11310;51.528;21.204;2022-11-20T08:21:39;99753.38;;;-5.10;100.00
22283;BME280;11310;51.528;21.204;2022-11-20T08:24:09;99747.50;;;-5.00;100.00
22283;BME280;11310;51.528;21.204;2022-11-20T08:26:40;99743.41;;;-4.86;100.00
22283;BME280;11310;51.528;21.204;2022-11-20T08:29:08;99742.63;;;-4.77;100.00
22283;BME280;11310;51.528;21.204;2022-11-20T08:31:37;99736.75;;;-4.66;100.00
22283;BME280;11310;51.528;21.204;2022-11-20T08:34:07;99735.19;;;-4.52;100.00
22283;BME280;11310;51.528;21.204;2022-11-20T08:36:40;99737.81;;;-4.43;100.00
22283;BME280;11310;51.528;21.204;2022-11-20T08:39:11;99733.63;;;-4.36;100.00
22283;BME280;11310;51.528;21.204;2022-11-20T08:41:42;99731.13;;;-4.27;100.00
22283;BME280;11310;51.528;21.204;2022-11-20T08:44:11;99725.22;;;-4.19;100.00
22283;BME280;11310;51.528;21.204;2022-11-20T08:46:41;99719.34;;;-4.09;100.00
22283;BME280;11310;51.528;21.204;2022-11-20T08:49:11;99715.09;;;-4.01;100.00
22283;BME280;11310;51.528;21.204;2022-11-20T08:51:41;99713.50;;;-3.90;100.00
22283;BME280;11310;51.528;21.204;2022-11-20T08:54:12;99713.53;;;-3.82;100.00
22283;BME280;11310;51.528;21.204;2022-11-20T08:56:44;99716.97;;;-3.76;100.00
22283;BME280;11310;51.528;21.204;2022-11-20T08:59:15;99714.47;;;-3.68;100.00
22283;BME280;11310;51.528;21.204;2022-11-20T09:02:03;99715.34;;;-3.57;100.00
22283;BME280;11310;51.528;21.204;2022-11-20T09:04:32;99722.25;;;-3.50;100.00
22283;BME280;11310;51.528;21.204;2022-11-20T09:07:02;99722.28;;;-3.40;100.00
22283;BME280;11310;51.528;21.204;2022-11-20T09:09:30;99719.78;;;-3.31;100.00
22283;BME280;11310;51.528;21.204;2022-11-20T09:12:01;99710.41;;;-3.20;100.00
22283;BME280;11310;51.528;21.204;2022-11-20T09:14:33;99710.41;;;-3.14;100.00
22283;BME280;11310;51.528;21.204;2022-11-20T09:17:03;99703.63;;;-3.03;100.00
22283;BME280;11310;51.528;21.204;2022-11-20T09:19:33;99708.78;;;-2.94;100.00
22283;BME280;11310;51.528;21.204;2022-11-20T09:22:04;99704.53;;;-2.65;100.00
22283;BME280;11310;51.528;21.204;2022-11-20T09:24:35;99696.84;;;-2.29;100.00
22283;BME280;11310;51.528;21.204;2022-11-20T09:27:05;99691.69;;;-2.05;100.00
22283;BME280;11310;51.528;21.204;2022-11-20T09:29:35;99697.69;;;-2.06;100.00
22283;BME280;11310;51.528;21.204;2022-11-20T09:32:05;99690.88;;;-2.13;100.00
22283;BME280;11310;51.528;21.204;2022-11-20T09:34:34;99688.28;;;-2.17;100.00
22283;BME280;11310;51.528;21.204;2022-11-20T09:37:04;99683.16;;;-2.19;100.00
22283;BME280;11310;51.528;21.204;2022-11-20T09:39:34;99680.56;;;-2.19;100.00
22283;BME280;11310;51.528;21.204;2022-11-20T09:42:27;99684.84;;;-2.16;100.00
22283;BME280;11310;51.528;21.204;2022-11-20T09:45:16;99672.88;;;-2.16;100.00
22283;BME280;11310;51.528;21.204;2022-11-20T09:48:12;99672.03;;;-2.10;100.00
22283;BME280;11310;51.528;21.204;2022-11-20T09:50:46;99667.69;;;-1.92;100.00
22283;BME280;11310;51.528;21.204;2022-11-20T09:53:26;99658.84;;;-1.19;100.00
22283;BME280;11310;51.528;21.204;2022-11-20T09:56:00;99664.84;;;-1.21;100.00
22283;BME280;11310;51.528;21.204;2022-11-20T09:58:34;99667.50;;;-1.38;100.00
22283;BME280;11310;51.528;21.204;2022-11-20T10:01:10;99665.84;;;-1.48;100.00
22283;BME280;11310;51.528;21.204;2022-11-20T10:03:58;99654.69;;;-1.47;100.00
22283;BME280;11310;51.528;21.204;2022-11-20T10:06:34;99658.13;;;-1.49;100.00
22283;BME280;11310;51.528;21.204;2022-11-20T10:09:18;99673.56;;;-1.51;100.00
22283;BME280;11310;51.528;21.204;2022-11-20T10:12:00;99667.56;;;-1.44;100.00
22283;BME280;11310;51.528;21.204;2022-11-20T10:14:45;99668.38;;;-1.39;100.00
22283;BME280;11310;51.528;21.204;2022-11-20T10:17:26;99668.38;;;-1.39;100.00
22283;BME280;11310;51.528;21.204;2022-11-20T10:20:14;99664.06;;;-1.37;100.00
22283;BME280;11310;51.528;21.204;2022-11-20T10:22:53;99652.03;;;-1.32;100.00
22283;BME280;11310;51.528;21.204;2022-11-20T10:25:30;99646.03;;;-1.29;100.00
22283;BME280;11310;51.528;21.204;2022-11-20T10:28:13;99641.75;;;-1.26;100.00
22283;BME280;11310;51.528;21.204;2022-11-20T10:30:50;99645.97;;;-1.20;100.00
22283;BME280;11310;51.528;21.204;2022-11-20T10:33:27;99638.25;;;-1.16;100.00
22283;BME280;11310;51.528;21.204;2022-11-20T10:36:22;99633.94;;;-1.15;100.00
22283;BME280;11310;51.528;21.204;2022-11-20T10:38:57;99634.81;;;-1.12;100.00
22283;BME280;11310;51.528;21.204;2022-11-20T10:41:32;99629.59;;;-1.06;100.00
22283;BME280;11310;51.528;21.204;2022-11-20T10:44:05;99632.19;;;-1.03;100.00
22283;BME280;11310;51.528;21.204;2022-11-20T10:46:43;99620.97;;;-0.97;100.00
22283;BME280;11310;51.528;21.204;2022-11-20T10:49:16;99629.50;;;-0.91;100.00
22283;BME280;11310;51.528;21.204;2022-11-20T10:51:59;99625.19;;;-0.87;100.00
22283;BME280;11310;51.528;21.204;2022-11-20T10:54:33;99620.91;;;-0.87;100.00
22283;BME280;11310;51.528;21.204;2022-11-20T10:57:10;99619.13;;;-0.82;100.00
22283;BME280;11310;51.528;21.204;2022-11-20T11:00:00;99614.81;;;-0.78;100.00
22283;BME280;11310;51.528;21.204;2022-11-20T11:02:35;99617.38;;;-0.77;100.00
22283;BME280;11310;51.528;21.204;2022-11-20T11:05:16;99619.06;;;-0.73;100.00
22283;BME280;11310;51.528;21.204;2022-11-20T11:07:49;99607.91;;;-0.72;100.00
22283;BME280;11310;51.528;21.204;2022-11-20T11:10:24;99601.03;;;-0.68;100.00
22283;BME280;11310;51.528;21.204;2022-11-20T11:12:54;99604.41;;;-0.63;100.00
22283;BME280;11310;51.528;21.204;2022-11-20T11:15:28;99605.25;;;-0.61;100.00
22283;BME280;11310;51.528;21.204;2022-11-20T11:17:58;99600.97;;;-0.59;100.00
22283;BME280;11310;51.528;21.204;2022-11-20T11:20:28;99600.97;;;-0.61;100.00
22283;BME280;11310;51.528;21.204;2022-11-20T11:22:59;99599.22;;;-0.59;100.00
22283;BME280;11310;51.528;21.204;2022-11-20T11:25:30;99601.72;;;-0.50;100.00
22283;BME280;11310;51.528;21.204;2022-11-20T11:28:01;99598.22;;;-0.44;100.00
22283;BME280;11310;51.528;21.204;2022-11-20T11:30:41;99593.00;;;-0.34;100.00
22283;BME280;11310;51.528;21.204;2022-11-20T11:33:19;99592.94;;;-0.31;100.00
22283;BME280;11310;51.528;21.204;2022-11-20T11:35:49;99590.41;;;-0.32;100.00
22283;BME280;11310;51.528;21.204;2022-11-20T11:38:23;99587.84;;;-0.34;100.00
22283;BME280;11310;51.528;21.204;2022-11-20T11:40:57;99590.41;;;-0.35;100.00
22283;BME280;11310;51.528;21.204;2022-11-20T11:43:30;99591.25;;;-0.35;100.00
22283;BME280;11310;51.528;21.204;2022-11-20T11:46:31;99589.56;;;-0.36;100.00
22283;BME280;11310;51.528;21.204;2022-11-20T11:49:15;99589.56;;;-0.36;100.00
22283;BME280;11310;51.528;21.204;2022-11-20T11:52:00;99583.53;;;-0.35;100.00
22283;BME280;11310;51.528;21.204;2022-11-20T11:54:35;99582.66;;;-0.32;100.00
22283;BME280;11310;51.528;21.204;2022-11-20T11:57:12;99575.78;;;-0.32;100.00
22283;BME280;11310;51.528;21.204;2022-11-20T11:59:51;99582.63;;;-0.29;100.00
22283;BME280;11310;51.528;21.204;2022-11-20T12:02:31;99577.47;;;-0.29;100.00
22283;BME280;11310;51.528;21.204;2022-11-20T12:05:13;99585.19;;;-0.26;100.00
22283;BME280;11310;51.528;21.204;2022-11-20T12:07:48;99575.72;;;-0.26;100.00
22283;BME280;11310;51.528;21.204;2022-11-20T12:10:22;99580.84;;;-0.24;100.00
22283;BME280;11310;51.528;21.204;2022-11-20T12:13:00;99579.13;;;-0.24;100.00
22283;BME280;11310;51.528;21.204;2022-11-20T12:15:33;99565.41;;;-0.26;100.00
22283;BME280;11310;51.528;21.204;2022-11-20T12:18:10;99569.75;;;-0.29;100.00
22283;BME280;11310;51.528;21.204;2022-11-20T12:21:11;99569.72;;;-0.26;100.00
22283;BME280;11310;51.528;21.204;2022-11-20T12:26:53;99555.19;;;-0.35;100.00
22283;BME280;11310;51.528;21.204;2022-11-20T12:29:40;99556.94;;;-0.35;100.00
22283;BME280;11310;51.528;21.204;2022-11-20T12:32:33;99551.78;;;-0.34;100.00
22283;BME280;11310;51.528;21.204;2022-11-20T12:35:19;99537.13;;;-0.30;100.00
22283;BME280;11310;51.528;21.204;2022-11-20T12:38:08;99544.84;;;-0.29;100.00
22283;BME280;11310;51.528;21.204;2022-11-20T12:40:46;99549.19;;;-0.32;100.00
22283;BME280;11310;51.528;21.204;2022-11-20T12:43:21;99544.06;;;-0.37;100.00
22283;BME280;11310;51.528;21.204;2022-11-20T12:46:24;99546.69;;;-0.41;100.00
22283;BME280;11310;51.528;21.204;2022-11-20T12:49:19;99550.19;;;-0.47;100.00
22283;BME280;11310;51.528;21.204;2022-11-20T12:52:01;99547.63;;;-0.51;100.00
22283;BME280;11310;51.528;21.204;2022-11-20T12:54:46;99543.41;;;-0.57;100.00
22283;BME280;11310;51.528;21.204;2022-11-20T12:57:23;99539.16;;;-0.64;100.00
22283;BME280;11310;51.528;21.204;2022-11-20T13:00:02;99528.06;;;-0.69;100.00
22283;BME280;11310;51.528;21.204;2022-11-20T13:02:41;99525.50;;;-0.70;100.00
22283;BME280;11310;51.528;21.204;2022-11-20T13:05:19;99525.56;;;-0.75;100.00
22283;BME280;11310;51.528;21.204;2022-11-20T13:07:52;99523.88;;;-0.79;100.00
22283;BME280;11310;51.528;21.204;2022-11-20T13:10:29;99529.91;;;-0.83;100.00
22283;BME280;11310;51.528;21.204;2022-11-20T13:13:05;99523.06;;;-0.87;100.00